createdAt,value
2023-01-02T00:00:45.396Z,2.08
2023-01-02T00:03:32.250Z,2.25
2023-01-02T00:06:19.436Z,2.08
2023-01-02T00:09:08.293Z,2.03
2023-01-02T00:11:56.481Z,2.20
2023-01-02T00:14:43.021Z,2.55
2023-01-02T00:17:30.065Z,2.10
2023-01-02T00:20:16.618Z,2.00
2023-01-02T00:23:03.483Z,2.08
2023-01-02T00:25:50.799Z,2.10
2023-01-02T00:28:39.207Z,2.30
2023-01-02T00:31:25.740Z,2.45
2023-01-02T00:34:12.588Z,2.00
2023-01-02T00:36:59.540Z,2.28
2023-01-02T00:39:46.040Z,2.47
2023-01-02T00:42:32.834Z,2.28
2023-01-02T00:45:21.015Z,2.30
2023-01-02T00:48:07.737Z,2.30
2023-01-02T00:50:54.656Z,2.13
2023-01-02T00:53:41.708Z,2.33
2023-01-02T00:56:28.495Z,2.17
2023-01-02T00:59:15.267Z,2.30
2023-01-02T01:02:03.570Z,2.03
2023-01-02T01:04:50.885Z,1.98
2023-01-02T01:07:37.372Z,2.40
2023-01-02T01:10:25.989Z,2.65
2023-01-02T01:13:12.501Z,2.13
2023-01-02T01:16:06.050Z,2.10
2023-01-02T01:18:56.980Z,2.35
2023-01-02T01:21:43.793Z,1.85
2023-01-02T01:24:31.063Z,2.42
2023-01-02T01:27:18.036Z,2.05
2023-01-02T01:30:05.877Z,2.30
2023-01-02T01:32:52.547Z,2.38
2023-01-02T01:35:40.833Z,2.42
2023-01-02T01:38:27.734Z,2.13
2023-01-02T01:41:17.873Z,1.75
2023-01-02T01:44:42.552Z,2.30
2023-01-02T01:47:39.902Z,1.73
2023-01-02T01:50:32.441Z,1.85
2023-01-02T01:53:24.600Z,2.05
2023-01-02T01:56:14.292Z,1.80
2023-01-02T01:59:01.095Z,1.90
2023-01-02T02:01:50.679Z,2.00
2023-01-02T02:04:37.973Z,2.30
2023-01-02T02:07:25.025Z,2.10
2023-01-02T02:10:13.915Z,2.08
2023-01-02T02:13:00.520Z,2.20
2023-01-02T02:16:13.929Z,2.00
2023-01-02T02:20:02.357Z,1.75
2023-01-02T02:23:50.584Z,1.63
2023-01-02T02:27:02.217Z,1.85
2023-01-02T02:30:16.811Z,2.03
2023-01-02T02:33:24.034Z,2.20
2023-01-02T02:36:25.512Z,2.33
2023-01-02T02:39:26.895Z,1.63
2023-01-02T02:42:26.088Z,2.00
2023-01-02T02:45:25.596Z,2.08
2023-01-02T02:48:19.133Z,1.55
2023-01-02T02:51:14.384Z,2.03
2023-01-02T02:54:06.437Z,1.90
2023-01-02T02:56:56.169Z,2.13
2023-01-02T02:59:43.455Z,2.10
2023-01-02T03:02:31.399Z,2.00
2023-01-02T03:05:26.516Z,1.80
2023-01-02T03:08:31.111Z,1.85
2023-01-02T03:11:23.669Z,2.05
2023-01-02T03:14:22.461Z,2.22
2023-01-02T03:17:20.959Z,1.88
2023-01-02T03:20:14.946Z,1.92
2023-01-02T03:23:07.400Z,1.58
2023-01-02T03:25:55.413Z,1.65
2023-01-02T03:28:47.029Z,1.75
2023-01-02T03:31:41.526Z,1.65
2023-01-02T03:34:34.709Z,1.77
2023-01-02T03:37:28.603Z,2.10
2023-01-02T03:40:21.610Z,1.98
2023-01-02T03:43:16.197Z,1.83
2023-01-02T03:46:14.664Z,2.03
2023-01-02T03:49:08.176Z,1.73
2023-01-02T03:51:55.611Z,2.28
2023-01-02T03:54:43.890Z,2.05
2023-01-02T03:57:48.862Z,2.08
2023-01-02T04:00:48.835Z,1.98
2023-01-02T04:03:44.959Z,1.70
2023-01-02T04:06:38.566Z,2.20
2023-01-02T04:09:29.670Z,2.00
2023-01-02T04:12:21.469Z,1.90
2023-01-02T04:15:12.715Z,1.65
2023-01-02T04:18:07.087Z,1.90
2023-01-02T04:20:58.848Z,2.10
2023-01-02T04:23:51.605Z,1.90
2023-01-02T04:26:46.422Z,2.05
2023-01-02T04:29:34.780Z,2.15
2023-01-02T04:32:27.744Z,1.73
2023-01-02T04:35:19.697Z,2.03
2023-01-02T04:38:11.563Z,1.83
2023-01-02T04:40:58.392Z,2.00
2023-01-02T04:43:44.993Z,2.15
2023-01-02T04:46:33.786Z,2.10
2023-01-02T04:49:22.798Z,1.80
2023-01-02T04:52:09.395Z,1.90
2023-01-02T04:54:56.121Z,2.58
2023-01-02T04:57:43.003Z,1.67
2023-01-02T05:00:29.729Z,2.30
2023-01-02T05:03:17.846Z,2.28
2023-01-02T05:06:04.722Z,1.90
2023-01-02T05:08:51.647Z,2.15
2023-01-02T05:11:38.048Z,2.28
2023-01-02T05:14:24.861Z,1.70
2023-01-02T05:17:11.735Z,1.70
2023-01-02T05:19:59.791Z,2.08
2023-01-02T05:23:04.253Z,2.00
2023-01-02T05:25:51.208Z,2.00
2023-01-02T05:28:38.826Z,2.42
2023-01-02T05:31:25.567Z,2.03
2023-01-02T05:34:16.481Z,1.83
2023-01-02T05:37:04.817Z,2.10
2023-01-02T05:39:51.842Z,2.25
2023-01-02T05:42:38.849Z,1.95
2023-01-02T05:45:34.592Z,2.55
2023-01-02T05:48:21.429Z,1.95
2023-01-02T05:51:11.085Z,2.40
2023-01-02T05:53:59.441Z,2.03
2023-01-02T05:56:46.326Z,2.05
2023-01-02T05:59:36.067Z,2.30
2023-01-02T06:02:22.935Z,1.52
2023-01-02T06:05:10.630Z,1.90
2023-01-02T06:07:57.415Z,2.38
2023-01-02T06:10:51.996Z,1.95
2023-01-02T06:13:40.095Z,2.28
2023-01-02T06:16:27.435Z,2.10
2023-01-02T06:19:14.321Z,2.28
2023-01-02T06:22:00.922Z,2.15
2023-01-02T06:24:47.495Z,2.22
2023-01-02T06:27:35.403Z,1.77
2023-01-02T06:30:22.172Z,2.28
2023-01-02T06:33:08.738Z,1.90
2023-01-02T06:35:59.713Z,2.00
2023-01-02T06:38:47.311Z,1.73
2023-01-02T06:41:34.262Z,1.98
2023-01-02T06:44:22.296Z,1.70
2023-01-02T06:47:08.703Z,1.75
2023-01-02T06:49:55.324Z,1.95
2023-01-02T06:52:41.828Z,1.92
2023-01-02T06:55:28.248Z,1.92
2023-01-02T06:58:19.471Z,1.67
2023-01-02T07:01:12.614Z,1.90
2023-01-02T07:03:59.480Z,1.90
2023-01-02T07:06:45.982Z,1.70
2023-01-02T07:09:33.809Z,2.00
2023-01-02T07:12:20.383Z,1.98
2023-01-02T07:15:08.802Z,1.85
2023-01-02T07:17:56.819Z,1.30
2023-01-02T07:20:43.244Z,1.70
2023-01-02T07:23:31.761Z,1.88
2023-01-02T07:26:19.630Z,2.10
2023-01-02T07:29:06.614Z,1.73
2023-01-02T07:31:53.045Z,1.85
2023-01-02T07:34:40.826Z,1.73
2023-01-02T07:37:27.524Z,1.50
2023-01-02T07:40:14.513Z,2.00
2023-01-02T07:43:01.389Z,1.38
2023-01-02T07:45:50.452Z,1.60
2023-01-02T07:48:37.409Z,1.27
2023-01-02T07:51:27.604Z,1.45
2023-01-02T07:54:14.680Z,1.48
2023-01-02T07:57:01.362Z,1.35
2023-01-02T07:59:49.999Z,1.60
2023-01-02T08:02:36.796Z,1.67
2023-01-02T08:05:23.513Z,1.55
2023-01-02T08:08:11.328Z,1.42
2023-01-02T08:10:58.132Z,1.27
2023-01-02T08:13:45.291Z,1.70
2023-01-02T08:16:31.879Z,1.58
2023-01-02T08:19:18.388Z,1.70
2023-01-02T08:22:05.116Z,1.55
2023-01-02T08:24:53.511Z,1.33
2023-01-02T08:27:40.134Z,1.70
2023-01-02T08:30:26.758Z,1.42
2023-01-02T08:33:13.222Z,1.50
2023-01-02T08:36:00.224Z,1.40
2023-01-02T08:38:47.102Z,1.45
2023-01-02T08:41:38.355Z,1.60
2023-01-02T08:44:25.060Z,1.73
2023-01-02T08:47:12.186Z,1.80
2023-01-02T08:49:59.057Z,1.92
2023-01-02T08:52:46.204Z,1.92
2023-01-02T08:55:32.872Z,1.33
2023-01-02T08:58:21.184Z,1.33
2023-01-02T09:01:07.995Z,2.10
2023-01-02T09:03:55.718Z,1.50
2023-01-02T09:06:46.287Z,1.80
2023-01-02T09:09:33.228Z,1.50
2023-01-02T09:12:20.288Z,1.27
2023-01-02T09:15:13.056Z,1.77
2023-01-02T09:17:59.664Z,1.70
2023-01-02T09:20:46.369Z,1.75
2023-01-02T09:23:34.566Z,1.77
2023-01-02T09:26:21.711Z,1.50
2023-01-02T09:29:08.721Z,1.60
2023-01-02T09:31:56.782Z,1.27
2023-01-02T09:34:50.204Z,1.20
2023-01-02T09:37:38.629Z,0.63
2023-01-02T09:40:26.231Z,0.55
2023-01-02T09:43:14.275Z,0.50
2023-01-02T09:46:05.736Z,0.57
2023-01-02T09:48:54.084Z,0.60
2023-01-02T09:51:41.257Z,0.50
2023-01-02T09:54:31.239Z,0.15
2023-01-02T09:57:37.911Z,0.55
2023-01-02T10:00:32.207Z,0.25
2023-01-02T10:03:29.809Z,0.57
2023-01-02T10:06:23.014Z,0.60
2023-01-02T10:09:18.103Z,0.50
2023-01-02T10:12:16.432Z,0.82
2023-01-02T10:15:07.150Z,0.85
2023-01-02T10:18:00.480Z,0.82
2023-01-02T10:20:56.824Z,1.05
2023-01-02T10:23:51.430Z,1.10
2023-01-02T10:26:43.927Z,0.90
2023-01-02T10:29:35.539Z,1.00
2023-01-02T10:32:25.843Z,0.88
2023-01-02T10:35:27.262Z,1.00
2023-01-02T10:38:17.693Z,1.00
2023-01-02T10:41:07.620Z,0.98
2023-01-02T10:44:00.520Z,0.93
2023-01-02T10:46:47.345Z,1.10
2023-01-02T10:49:37.739Z,1.20
2023-01-02T10:52:32.937Z,1.20
2023-01-02T10:55:37.139Z,1.10
2023-01-02T10:58:27.596Z,1.25
2023-01-02T11:01:19.011Z,1.20
2023-01-02T11:04:20.300Z,1.40
2023-01-02T11:07:06.896Z,1.45
2023-01-02T11:09:57.584Z,1.48
2023-01-02T11:12:49.095Z,1.58
2023-01-02T11:15:58.574Z,1.38
2023-01-02T11:18:54.180Z,1.38
2023-01-02T11:21:43.901Z,1.58
2023-01-02T11:24:32.765Z,1.60
2023-01-02T11:27:19.393Z,1.50
2023-01-02T11:30:27.963Z,1.30
2023-01-02T11:33:31.151Z,1.05
2023-01-02T11:36:20.593Z,1.30
2023-01-02T11:39:24.162Z,0.77
2023-01-02T11:42:43.525Z,1.00
2023-01-02T11:45:31.934Z,1.40
2023-01-02T11:48:23.643Z,1.30
2023-01-02T11:51:18.243Z,1.17
2023-01-02T11:54:14.600Z,1.42
2023-01-02T11:57:01.907Z,1.27
2023-01-02T11:59:56.485Z,1.30
2023-01-02T12:02:46.535Z,1.50
2023-01-02T12:05:48.779Z,2.15
2023-01-02T12:08:58.951Z,1.92
2023-01-02T12:12:11.262Z,2.05
2023-01-02T12:15:49.508Z,2.05
2023-01-02T12:19:01.896Z,1.60
2023-01-02T12:22:02.085Z,1.73
2023-01-02T12:25:24.250Z,1.40
2023-01-02T12:28:43.737Z,1.42
2023-01-02T12:32:22.625Z,1.77
2023-01-02T12:35:50.297Z,1.70
2023-01-02T12:39:03.858Z,1.50
2023-01-02T12:42:11.031Z,1.52
2023-01-02T12:45:01.502Z,1.48
2023-01-02T12:48:18.320Z,1.55
2023-01-02T12:51:20.747Z,1.50
2023-01-02T12:54:35.462Z,1.23
2023-01-02T12:57:34.686Z,1.38
2023-01-02T13:01:05.523Z,1.35
2023-01-02T13:04:15.487Z,1.70
2023-01-02T13:07:11.892Z,1.50
2023-01-02T13:10:05.800Z,1.63
2023-01-02T13:12:56.695Z,1.80
2023-01-02T13:15:50.731Z,1.92
2023-01-02T13:19:00.643Z,1.55
2023-01-02T13:21:55.819Z,1.90
2023-01-02T13:24:43.580Z,1.63
2023-01-02T13:27:31.067Z,2.00
2023-01-02T13:31:35.411Z,1.80
2023-01-02T13:34:22.272Z,1.83
2023-01-02T13:37:14.742Z,1.90
2023-01-02T13:40:06.244Z,1.42
2023-01-02T13:42:59.484Z,2.70
2023-01-02T13:45:53.381Z,2.13
2023-01-02T13:48:46.423Z,1.88
2023-01-02T13:51:36.674Z,2.08
2023-01-02T13:54:39.516Z,2.25
2023-01-02T13:57:36.795Z,1.80
2023-01-02T14:00:37.705Z,1.90
2023-01-02T14:03:37.202Z,1.42
2023-01-02T14:06:36.468Z,1.50
2023-01-02T14:10:08.409Z,1.40
2023-01-02T14:13:08.068Z,1.80
2023-01-02T14:16:51.695Z,1.60
2023-01-02T14:19:39.637Z,1.60
2023-01-02T14:22:28.075Z,1.60
2023-01-02T14:25:17.272Z,1.50
2023-01-02T14:28:10.861Z,1.50
2023-01-02T14:30:59.104Z,2.05
2023-01-02T14:33:58.312Z,1.83
2023-01-02T14:36:49.227Z,1.80
2023-01-02T14:39:38.245Z,1.75
2023-01-02T14:42:52.027Z,2.40
2023-01-02T14:45:46.817Z,1.80
2023-01-02T14:48:42.294Z,1.73
2023-01-02T14:51:38.120Z,1.80
2023-01-02T14:54:30.830Z,1.73
2023-01-02T14:57:33.021Z,1.40
2023-01-02T15:00:28.163Z,1.77
2023-01-02T15:03:29.360Z,1.42
2023-01-02T15:06:32.542Z,2.22
2023-01-02T15:09:30.313Z,1.80
2023-01-02T15:12:42.938Z,1.60
2023-01-02T15:15:32.972Z,1.70
2023-01-02T15:18:24.740Z,1.35
2023-01-02T15:21:14.413Z,1.35
2023-01-02T15:24:04.000Z,1.75
2023-01-02T15:26:51.739Z,1.80
2023-01-02T15:29:49.853Z,1.50
2023-01-02T15:32:36.495Z,1.88
2023-01-02T15:35:27.447Z,1.52
2023-01-02T15:38:22.527Z,2.25
2023-01-02T15:41:16.491Z,2.55
2023-01-02T15:44:21.207Z,2.42
2023-01-02T15:47:10.904Z,2.08
2023-01-02T15:49:58.552Z,1.90
2023-01-02T15:52:49.104Z,2.58
2023-01-02T15:55:39.562Z,2.10
2023-01-02T15:58:30.061Z,2.03
2023-01-02T16:01:19.903Z,2.60
2023-01-02T16:04:30.099Z,2.40
2023-01-02T16:07:26.484Z,2.17
2023-01-02T16:10:22.136Z,2.80
2023-01-02T16:13:29.708Z,2.78
2023-01-02T16:16:19.892Z,2.35
2023-01-02T16:19:21.542Z,2.70
2023-01-02T16:22:20.738Z,3.35
2023-01-02T16:25:17.047Z,4.18
2023-01-02T16:28:35.159Z,3.80
2023-01-02T16:31:19.580Z,3.67
2023-01-02T16:34:28.503Z,3.72
2023-01-02T16:37:37.705Z,4.10
2023-01-02T16:41:00.946Z,4.45
2023-01-02T16:43:49.170Z,3.65
2023-01-02T16:46:36.166Z,3.58
2023-01-02T16:49:24.980Z,4.25
2023-01-02T16:52:12.065Z,4.68
2023-01-02T16:54:58.596Z,4.20
2023-01-02T16:57:45.135Z,3.58
2023-01-02T17:00:31.729Z,3.70
2023-01-02T17:03:23.537Z,4.10
2023-01-02T17:06:18.084Z,3.80
2023-01-02T17:09:04.860Z,3.28
2023-01-02T17:12:00.855Z,3.17
2023-01-02T17:14:47.800Z,3.00
2023-01-02T17:17:34.692Z,2.83
2023-01-02T17:20:21.668Z,2.72
2023-01-02T17:23:10.070Z,2.50
2023-01-02T17:25:56.759Z,2.50
2023-01-02T17:28:43.467Z,2.58
2023-01-02T17:31:30.108Z,2.97
2023-01-02T17:34:16.933Z,2.92
2023-01-02T17:37:03.755Z,2.63
2023-01-02T17:39:51.805Z,2.25
2023-01-02T17:42:38.942Z,2.60
2023-01-02T17:45:26.543Z,2.45
2023-01-02T17:48:17.245Z,2.97
2023-01-02T17:51:07.399Z,2.83
2023-01-02T17:53:54.629Z,2.40
2023-01-02T17:56:42.921Z,2.85
2023-01-02T17:59:30.646Z,2.35
2023-01-02T18:02:20.422Z,1.70
2023-01-02T18:05:09.026Z,1.30
2023-01-02T18:07:55.972Z,1.20
2023-01-02T18:10:46.506Z,1.00
2023-01-02T18:13:39.287Z,1.30
2023-01-02T18:16:35.290Z,1.10
2023-01-02T18:19:24.804Z,1.00
2023-01-02T18:22:16.430Z,1.40
2023-01-02T18:25:19.185Z,1.38
2023-01-02T18:28:24.018Z,2.23
2023-01-02T18:31:19.095Z,2.10
2023-01-02T18:34:46.282Z,2.08
2023-01-02T18:37:30.429Z,2.42
2023-01-02T18:40:28.137Z,2.47
2023-01-02T18:43:23.517Z,2.63
2023-01-02T18:46:18.684Z,2.95
2023-01-02T18:49:18.724Z,2.90
2023-01-02T18:52:26.520Z,3.13
2023-01-02T18:55:28.422Z,3.38
2023-01-02T18:58:42.899Z,3.03
2023-01-02T19:01:36.143Z,2.97
2023-01-02T19:04:28.673Z,3.15
2023-01-02T19:07:27.568Z,3.05
2023-01-02T19:10:37.595Z,2.90
2023-01-02T19:13:28.541Z,2.60
2023-01-02T19:16:20.012Z,3.08
2023-01-02T19:19:16.459Z,3.30
2023-01-02T19:22:03.002Z,3.70
2023-01-02T19:24:50.486Z,3.13
2023-01-02T19:27:39.714Z,2.85
2023-01-02T19:30:31.549Z,3.22
2023-01-02T19:33:41.166Z,3.28
2023-01-02T19:36:39.783Z,2.50
2023-01-02T19:39:31.165Z,2.17
2023-01-02T19:42:21.900Z,2.03
2023-01-02T19:45:14.738Z,1.83
2023-01-02T19:48:01.815Z,1.98
2023-01-02T19:50:50.695Z,2.10
2023-01-02T19:53:38.982Z,2.00
2023-01-02T19:56:25.761Z,1.90
2023-01-02T19:59:12.994Z,1.65
2023-01-02T20:02:00.021Z,2.10
2023-01-02T20:04:47.842Z,2.40
2023-01-02T20:07:34.666Z,1.85
2023-01-02T20:10:23.685Z,2.05
2023-01-02T20:13:10.275Z,2.67
2023-01-02T20:15:56.908Z,2.20
2023-01-02T20:18:44.168Z,2.10
2023-01-02T20:21:31.186Z,2.10
2023-01-02T20:24:17.608Z,2.43
2023-01-02T20:27:05.939Z,2.70
2023-01-02T20:29:55.021Z,2.30
2023-01-02T20:32:41.474Z,2.40
2023-01-02T20:35:28.218Z,2.37
2023-01-02T20:38:15.278Z,2.43
2023-01-02T20:41:01.692Z,2.70
2023-01-02T20:43:49.690Z,2.30
2023-01-02T20:46:36.675Z,2.25
2023-01-02T20:49:25.207Z,2.03
2023-01-02T20:52:11.973Z,1.80
2023-01-02T20:54:59.531Z,1.97
2023-01-02T20:57:48.529Z,2.15
2023-01-02T21:00:39.569Z,2.30
2023-01-02T21:03:26.080Z,1.95
2023-01-02T21:06:12.719Z,1.70
2023-01-02T21:09:00.744Z,2.13
2023-01-02T21:11:47.445Z,2.17
2023-01-02T21:14:37.539Z,2.30
2023-01-02T21:17:25.946Z,2.33
2023-01-02T21:20:12.854Z,3.97
2023-01-02T21:22:59.615Z,3.30
2023-01-02T21:25:46.973Z,3.57
2023-01-02T21:28:34.881Z,3.40
2023-01-02T21:31:22.357Z,3.42
2023-01-02T21:34:11.560Z,3.70
2023-01-02T21:36:59.751Z,3.75
2023-01-02T21:39:48.168Z,4.57
2023-01-02T21:42:40.787Z,4.57
2023-01-02T21:45:31.084Z,4.65
2023-01-02T21:48:17.690Z,4.63
2023-01-02T21:51:06.965Z,4.47
2023-01-02T21:53:53.293Z,4.83
2023-01-02T21:56:40.187Z,4.50
2023-01-02T21:59:27.744Z,4.30
2023-01-02T22:02:15.522Z,4.53
2023-01-02T22:05:02.571Z,4.03
2023-01-02T22:07:50.508Z,4.13
2023-01-02T22:10:37.193Z,4.63
2023-01-02T22:13:23.716Z,5.20
2023-01-02T22:16:10.494Z,4.90
2023-01-02T22:18:56.886Z,4.90
2023-01-02T22:21:43.642Z,4.30
2023-01-02T22:24:31.849Z,4.43
2023-01-02T22:27:21.852Z,4.70
2023-01-02T22:30:22.955Z,4.50
2023-01-02T22:33:12.751Z,4.80
2023-01-02T22:35:59.298Z,4.93
2023-01-02T22:39:09.591Z,5.43
2023-01-02T22:42:33.628Z,4.80
2023-01-02T22:45:24.717Z,5.17
2023-01-02T22:48:21.485Z,5.00
2023-01-02T22:51:12.191Z,5.47
2023-01-02T22:53:58.776Z,5.50
2023-01-02T22:56:46.258Z,5.53
2023-01-02T22:59:34.236Z,5.53
2023-01-02T23:02:22.871Z,5.30
2023-01-02T23:05:17.538Z,5.40
2023-01-02T23:08:04.515Z,4.73
2023-01-02T23:10:51.321Z,5.23
2023-01-02T23:13:39.337Z,5.37
2023-01-02T23:16:45.414Z,4.77
2023-01-02T23:19:32.093Z,5.40
2023-01-02T23:22:18.745Z,5.83
2023-01-02T23:25:07.498Z,4.97
2023-01-02T23:27:55.292Z,5.23
2023-01-02T23:30:42.207Z,5.90
2023-01-02T23:33:30.368Z,5.47
2023-01-02T23:36:17.005Z,5.00
2023-01-02T23:39:04.316Z,5.53
2023-01-02T23:41:52.306Z,5.80
2023-01-02T23:44:39.419Z,5.03
2023-01-02T23:47:26.235Z,5.20
2023-01-02T23:50:15.519Z,4.90
2023-01-02T23:53:02.295Z,5.27
2023-01-02T23:55:48.817Z,5.47
2023-01-02T23:58:38.165Z,5.23
